createdAt,value
2019-03-20T00:00:26.629Z,101818.92
2019-03-20T00:02:58.898Z,101824.14
2019-03-20T00:05:30.802Z,101825.03
2019-03-20T00:08:02.742Z,101815.05
2019-03-20T00:10:34.717Z,101822.41
2019-03-20T00:13:06.719Z,101823.27
2019-03-20T00:15:39.678Z,101824.60
2019-03-20T00:18:12.201Z,101822.02
2019-03-20T00:20:44.178Z,101825.11
2019-03-20T00:23:16.162Z,101818.22
2019-03-20T00:25:48.092Z,101818.62
2019-03-20T00:28:20.116Z,101819.55
2019-03-20T00:30:52.022Z,101822.17
2019-03-20T00:33:23.970Z,101826.14
2019-03-20T00:35:55.900Z,101823.57
2019-03-20T00:38:27.834Z,101828.80
2019-03-20T00:40:59.743Z,101829.28
2019-03-20T00:43:31.562Z,101825.42
2019-03-20T00:46:03.410Z,101829.38
2019-03-20T00:48:35.586Z,101830.70
2019-03-20T00:51:07.460Z,101828.13
2019-03-20T00:53:39.384Z,101825.57
2019-03-20T00:56:11.309Z,101832.12
2019-03-20T00:58:43.163Z,101831.70
2019-03-20T01:01:15.160Z,101833.91
2019-03-20T01:03:47.222Z,101833.47
2019-03-20T01:06:20.074Z,101830.05
2019-03-20T01:08:51.881Z,101831.38
2019-03-20T01:11:23.865Z,101833.98
2019-03-20T01:13:55.819Z,101836.62
2019-03-20T01:16:27.694Z,101831.45
2019-03-20T01:18:59.778Z,101839.25
2019-03-20T01:21:31.646Z,101832.33
2019-03-20T01:24:03.505Z,101836.27
2019-03-20T01:26:35.352Z,101833.69
2019-03-20T01:29:07.228Z,101830.27
2019-03-20T01:31:39.146Z,101829.44
2019-03-20T01:34:11.298Z,101834.64
2019-03-20T01:36:43.174Z,101832.95
2019-03-20T01:39:14.999Z,101835.12
2019-03-20T01:41:46.856Z,101833.84
2019-03-20T01:44:18.678Z,101837.34
2019-03-20T01:46:50.554Z,101838.70
2019-03-20T01:49:22.536Z,101841.76
2019-03-20T01:51:54.418Z,101840.93
2019-03-20T01:54:27.851Z,101847.42
2019-03-20T01:56:59.659Z,101849.62
2019-03-20T01:59:31.505Z,101851.36
2019-03-20T02:02:03.462Z,101847.48
2019-03-20T02:04:35.316Z,101853.11
2019-03-20T02:07:07.163Z,101857.00
2019-03-20T02:09:39.032Z,101856.13
2019-03-20T02:12:10.858Z,101855.27
2019-03-20T02:14:42.654Z,101856.56
2019-03-20T02:17:14.498Z,101860.05
2019-03-20T02:19:47.505Z,101867.81
2019-03-20T02:22:19.436Z,101860.50
2019-03-20T02:24:51.346Z,101863.95
2019-03-20T02:27:23.213Z,101869.57
2019-03-20T02:29:55.745Z,101863.95
2019-03-20T02:32:27.564Z,101870.42
2019-03-20T02:34:59.618Z,101870.87
2019-03-20T02:37:31.573Z,101873.46
2019-03-20T02:40:03.443Z,101874.80
2019-03-20T02:42:35.333Z,101874.35
2019-03-20T02:45:10.158Z,101882.56
2019-03-20T02:47:41.989Z,101888.59
2019-03-20T02:50:14.162Z,101884.30
2019-03-20T02:52:46.013Z,101883.01
2019-03-20T02:55:18.003Z,101891.22
2019-03-20T02:57:49.877Z,101893.37
2019-03-20T03:00:22.057Z,101892.07
2019-03-20T03:02:53.949Z,101892.48
2019-03-20T03:05:25.755Z,101895.11
2019-03-20T03:07:57.709Z,101889.92
2019-03-20T03:10:29.545Z,101896.81
2019-03-20T03:13:01.379Z,101899.84
2019-03-20T03:15:33.249Z,101905.43
2019-03-20T03:18:05.102Z,101905.43
2019-03-20T03:20:37.170Z,101906.28
2019-03-20T03:23:08.989Z,101908.02
2019-03-20T03:25:42.191Z,101905.84
2019-03-20T03:28:14.026Z,101904.98
2019-03-20T03:30:46.048Z,101908.88
2019-03-20T03:33:17.938Z,101911.86
2019-03-20T03:35:49.803Z,101910.97
2019-03-20T03:38:21.859Z,101913.97
2019-03-20T03:40:53.720Z,101904.89
2019-03-20T03:43:25.539Z,101911.37
2019-03-20T03:45:57.388Z,101909.22
2019-03-20T03:48:29.361Z,101913.52
2019-03-20T03:51:01.510Z,101908.32
2019-03-20T03:53:33.305Z,101908.31
2019-03-20T03:56:05.435Z,101913.46
2019-03-20T03:58:37.396Z,101917.79
2019-03-20T04:01:09.288Z,101915.20
2019-03-20T04:03:41.197Z,101920.83
2019-03-20T04:06:13.314Z,101922.12
2019-03-20T04:08:45.152Z,101921.67
2019-03-20T04:11:17.044Z,101926.86
2019-03-20T04:13:49.850Z,101924.27
2019-03-20T04:16:21.699Z,101923.42
2019-03-20T04:18:53.608Z,101921.69
2019-03-20T04:21:25.544Z,101924.28
2019-03-20T04:23:57.406Z,101932.09
2019-03-20T04:26:29.306Z,101932.09
2019-03-20T04:29:01.214Z,101940.72
2019-03-20T04:31:33.273Z,101939.42
2019-03-20T04:34:05.146Z,101951.54
2019-03-20T04:36:47.234Z,101943.77
2019-03-20T04:39:10.867Z,101951.54
2019-03-20T04:41:42.729Z,101953.28
2019-03-20T04:44:14.712Z,101954.13
2019-03-20T04:46:46.570Z,101964.09
2019-03-20T04:49:18.386Z,101965.39
2019-03-20T04:51:50.291Z,101970.13
2019-03-20T04:54:22.126Z,101974.02
2019-03-20T04:56:53.958Z,101969.69
2019-03-20T04:59:25.807Z,101974.86
2019-03-20T05:01:57.704Z,101976.16
2019-03-20T05:04:29.578Z,101982.23
2019-03-20T05:07:01.712Z,101986.11
2019-03-20T05:09:33.558Z,101986.08
2019-03-20T05:12:05.801Z,101986.97
2019-03-20T05:14:37.719Z,101986.97
2019-03-20T05:17:09.554Z,101993.00
2019-03-20T05:19:41.539Z,101996.45
2019-03-20T05:22:14.720Z,101999.89
2019-03-20T05:24:46.570Z,102000.30
2019-03-20T05:27:18.421Z,102007.62
2019-03-20T05:29:50.302Z,102010.22
2019-03-20T05:32:22.297Z,102011.07
2019-03-20T05:34:54.148Z,102011.50
2019-03-20T05:37:27.127Z,102018.39
2019-03-20T05:39:59.135Z,102015.36
2019-03-20T05:42:31.002Z,102016.64
2019-03-20T05:45:02.888Z,102012.73
2019-03-20T05:47:35.081Z,102017.02
2019-03-20T05:50:07.990Z,102021.75
2019-03-20T05:52:40.161Z,102027.33
2019-03-20T05:55:14.531Z,102027.25
2019-03-20T05:57:46.363Z,102019.41
2019-03-20T06:00:18.817Z,102034.95
2019-03-20T06:02:50.608Z,102031.89
2019-03-20T06:05:22.448Z,102035.70
2019-03-20T06:07:54.565Z,102035.23
2019-03-20T06:10:26.402Z,102042.53
2019-03-20T06:12:58.238Z,102043.75
2019-03-20T06:15:30.076Z,102043.24
2019-03-20T06:18:01.929Z,102052.27
2019-03-20T06:20:34.066Z,102055.67
2019-03-20T06:23:06.234Z,102059.57
2019-03-20T06:25:38.044Z,102052.53
2019-03-20T06:28:09.942Z,102049.00
2019-03-20T06:30:41.793Z,102053.22
2019-03-20T06:33:13.683Z,102048.29
2019-03-20T06:35:45.577Z,102053.86
2019-03-20T06:38:17.430Z,102054.55
2019-03-20T06:40:49.267Z,102060.09
2019-03-20T06:43:21.127Z,102060.92
2019-03-20T06:45:52.967Z,102062.97
2019-03-20T06:48:24.918Z,102061.52
2019-03-20T06:50:57.882Z,102071.78
2019-03-20T06:53:30.169Z,102070.72
2019-03-20T06:56:02.037Z,102071.80
2019-03-20T06:58:33.888Z,102077.30
2019-03-20T07:01:14.189Z,102074.51
2019-03-20T07:04:30.112Z,102082.27
2019-03-20T07:07:20.951Z,102083.83
2019-03-20T07:10:44.071Z,102081.53
2019-03-20T07:13:15.923Z,102079.19
2019-03-20T07:15:47.800Z,102093.70
2019-03-20T07:18:20.602Z,102092.88
2019-03-20T07:20:52.490Z,102089.28
2019-03-20T07:23:24.280Z,102101.77
2019-03-20T07:25:56.324Z,102096.93
2019-03-20T07:28:28.169Z,102099.79
2019-03-20T07:31:00.014Z,102095.58
2019-03-20T07:33:32.234Z,102101.20
2019-03-20T07:36:04.326Z,102099.08
2019-03-20T07:38:36.164Z,102099.70
2019-03-20T07:41:08.332Z,102103.42
2019-03-20T07:43:40.188Z,102101.23
2019-03-20T07:46:12.053Z,102110.43
2019-03-20T07:48:44.721Z,102124.84
2019-03-20T07:51:16.603Z,102117.33
2019-03-20T07:53:48.428Z,102120.73
2019-03-20T07:56:20.319Z,102120.48
2019-03-20T07:58:52.194Z,102116.18
2019-03-20T08:01:24.112Z,102120.42
2019-03-20T08:03:57.235Z,102128.66
2019-03-20T08:06:29.074Z,102125.33
2019-03-20T08:09:00.911Z,102121.20
2019-03-20T08:11:34.108Z,102127.00
2019-03-20T08:14:06.063Z,102129.08
2019-03-20T08:16:37.917Z,102127.08
2019-03-20T08:19:09.810Z,102125.31
2019-03-20T08:21:41.697Z,102121.91
2019-03-20T08:24:13.535Z,102126.77
2019-03-20T08:26:45.670Z,102119.33
2019-03-20T08:29:17.770Z,102126.13
2019-03-20T08:31:49.612Z,102122.01
2019-03-20T08:34:21.551Z,102118.51
2019-03-20T08:36:53.454Z,102123.41
2019-03-20T08:39:25.368Z,102130.67
2019-03-20T08:41:57.538Z,102124.61
2019-03-20T08:44:29.473Z,102130.79
2019-03-20T08:47:01.320Z,102131.25
2019-03-20T08:49:33.296Z,102131.24
2019-03-20T08:52:05.133Z,102127.41
2019-03-20T08:54:37.035Z,102134.84
2019-03-20T08:57:09.166Z,102133.44
2019-03-20T08:59:41.071Z,102130.03
2019-03-20T09:02:12.921Z,102138.27
2019-03-20T09:04:44.743Z,102137.39
2019-03-20T09:07:16.633Z,102137.20
2019-03-20T09:09:50.792Z,102137.09
2019-03-20T09:12:22.187Z,102139.02
2019-03-20T09:14:54.044Z,102137.54
2019-03-20T09:17:25.905Z,102140.80
2019-03-20T09:19:57.800Z,102144.35
2019-03-20T09:22:29.696Z,102146.39
2019-03-20T09:25:01.575Z,102152.08
2019-03-20T09:27:33.735Z,102154.34
2019-03-20T09:30:06.702Z,102153.73
2019-03-20T09:32:38.634Z,102152.72
2019-03-20T09:35:10.893Z,102149.59
2019-03-20T09:37:51.299Z,102159.02
2019-03-20T09:40:18.012Z,102157.16
2019-03-20T09:42:49.886Z,102155.61
2019-03-20T09:45:22.125Z,102163.97
2019-03-20T09:47:53.993Z,102158.66
2019-03-20T09:50:25.864Z,102163.30
2019-03-20T09:52:57.779Z,102162.73
2019-03-20T09:55:29.671Z,102158.78
2019-03-20T09:58:11.141Z,102159.20
2019-03-20T10:00:35.207Z,102160.67
2019-03-20T10:03:07.089Z,102161.22
2019-03-20T10:05:39.003Z,102166.20
2019-03-20T10:08:10.838Z,102167.84
2019-03-20T10:10:42.746Z,102168.59
2019-03-20T10:13:15.063Z,102166.09
2019-03-20T10:15:46.934Z,102161.66
2019-03-20T10:18:18.859Z,102163.00
2019-03-20T10:20:50.805Z,102165.41
2019-03-20T10:23:22.693Z,102178.13
2019-03-20T10:25:54.586Z,102181.10
2019-03-20T10:28:26.754Z,102173.91
2019-03-20T10:30:58.609Z,102179.02
2019-03-20T10:33:30.474Z,102175.87
2019-03-20T10:36:02.378Z,102175.09
2019-03-20T10:38:34.249Z,102171.98
2019-03-20T10:41:06.103Z,102181.23
2019-03-20T10:43:38.269Z,102180.99
2019-03-20T10:46:10.149Z,102176.41
2019-03-20T10:48:42.040Z,102173.45
2019-03-20T10:51:13.933Z,102176.78
2019-03-20T10:53:45.762Z,102181.31
2019-03-20T10:56:17.615Z,102178.91
2019-03-20T10:58:51.329Z,102160.78
2019-03-20T11:01:24.291Z,102170.62
2019-03-20T11:03:56.333Z,102166.84
2019-03-20T11:06:28.299Z,102162.03
2019-03-20T11:09:00.156Z,102163.53
2019-03-20T11:11:32.088Z,102160.67
2019-03-20T11:14:04.216Z,102159.66
2019-03-20T11:16:36.118Z,102157.75
2019-03-20T11:19:07.966Z,102155.27
2019-03-20T11:21:39.825Z,102150.72
2019-03-20T11:24:11.795Z,102148.59
2019-03-20T11:26:43.825Z,102135.17
2019-03-20T11:29:21.316Z,102138.16
2019-03-20T11:31:49.264Z,102134.07
2019-03-20T11:34:21.076Z,102132.13
2019-03-20T11:36:53.081Z,102137.83
2019-03-20T11:39:29.574Z,102130.55
2019-03-20T11:41:58.515Z,102135.23
2019-03-20T11:44:30.618Z,102128.00
2019-03-20T11:47:02.622Z,102129.20
2019-03-20T11:49:34.501Z,102122.01
2019-03-20T11:52:06.581Z,102116.83
2019-03-20T11:54:38.484Z,102122.50
2019-03-20T11:57:10.356Z,102121.34
2019-03-20T11:59:42.642Z,102123.34
2019-03-20T12:02:14.513Z,102115.46
2019-03-20T12:04:46.399Z,102115.55
2019-03-20T12:07:19.234Z,102113.55
2019-03-20T12:09:51.128Z,102118.58
2019-03-20T12:12:23.003Z,102111.70
2019-03-20T12:14:55.299Z,102114.95
2019-03-20T12:17:27.175Z,102124.02
2019-03-20T12:19:59.271Z,102115.23
2019-03-20T12:22:31.151Z,102125.59
2019-03-20T12:25:03.028Z,102133.55
2019-03-20T12:27:34.875Z,102121.83
2019-03-20T12:30:10.444Z,102114.97
2019-03-20T12:32:42.374Z,102112.48
2019-03-20T12:35:15.712Z,102111.73
2019-03-20T12:37:48.234Z,102103.27
2019-03-20T12:40:23.904Z,102099.53
2019-03-20T12:42:56.092Z,102110.69
2019-03-20T12:45:30.775Z,102099.23
2019-03-20T12:48:02.711Z,102095.56
2019-03-20T12:50:34.587Z,102087.80
2019-03-20T12:53:06.734Z,102088.30
2019-03-20T12:55:38.704Z,102082.62
2019-03-20T12:58:10.639Z,102078.25
2019-03-20T13:00:42.899Z,102080.52
2019-03-20T13:03:14.838Z,102083.84
2019-03-20T13:05:46.665Z,102066.72
2019-03-20T13:08:18.559Z,102082.02
2019-03-20T13:10:50.483Z,102077.46
2019-03-20T13:13:22.450Z,102081.68
2019-03-20T13:15:54.337Z,102075.70
2019-03-20T13:18:26.167Z,102073.40
2019-03-20T13:20:58.077Z,102066.47
2019-03-20T13:23:32.634Z,102065.98
2019-03-20T13:26:04.924Z,102068.20
2019-03-20T13:28:36.855Z,102064.75
2019-03-20T13:31:17.157Z,102064.09
2019-03-20T13:33:49.393Z,102068.13
2019-03-20T13:36:21.670Z,102062.23
2019-03-20T13:38:53.734Z,102058.66
2019-03-20T13:41:25.619Z,102062.38
2019-03-20T13:43:57.445Z,102051.31
2019-03-20T13:46:29.621Z,102056.52
2019-03-20T13:49:01.435Z,102065.70
2019-03-20T13:51:33.446Z,102049.52
2019-03-20T13:54:05.343Z,102041.75
2019-03-20T13:56:37.280Z,102052.27
2019-03-20T13:59:09.190Z,102056.73
2019-03-20T14:01:41.268Z,102054.21
2019-03-20T14:04:13.327Z,102050.81
2019-03-20T14:06:45.363Z,102057.86
2019-03-20T14:09:17.252Z,102043.81
2019-03-20T14:11:49.092Z,102058.34
2019-03-20T14:14:20.898Z,102063.91
2019-03-20T14:16:52.964Z,102057.67
2019-03-20T14:19:24.764Z,102057.78
2019-03-20T14:21:56.542Z,102061.16
2019-03-20T14:24:28.304Z,102045.40
2019-03-20T14:27:00.112Z,102049.70
2019-03-20T14:29:31.902Z,102048.84
2019-03-20T14:32:03.902Z,102043.63
2019-03-20T14:34:35.679Z,102035.58
2019-03-20T14:37:07.627Z,102036.20
2019-03-20T14:39:39.601Z,102035.66
2019-03-20T14:42:11.423Z,102028.12
2019-03-20T14:44:43.259Z,102026.19
2019-03-20T14:47:15.365Z,102026.92
2019-03-20T14:49:47.147Z,102029.22
2019-03-20T14:52:18.993Z,102025.09
2019-03-20T14:54:50.867Z,102029.09
2019-03-20T14:57:22.642Z,102028.77
2019-03-20T14:59:54.518Z,102028.36
2019-03-20T15:02:26.625Z,102026.06
2019-03-20T15:04:58.603Z,102030.93
2019-03-20T15:07:30.451Z,102028.03
2019-03-20T15:10:02.303Z,102022.76
2019-03-20T15:12:34.209Z,102029.76
2019-03-20T15:15:11.153Z,102030.28
2019-03-20T15:17:43.380Z,102032.59
2019-03-20T15:20:15.298Z,102038.27
2019-03-20T15:22:47.341Z,102037.25
2019-03-20T15:25:19.448Z,102044.13
2019-03-20T15:27:51.328Z,102039.19
2019-03-20T15:30:23.961Z,102033.45
2019-03-20T15:32:56.045Z,102035.44
2019-03-20T15:35:27.942Z,102033.02
2019-03-20T15:37:59.754Z,102043.63
2019-03-20T15:40:31.872Z,102038.56
2019-03-20T15:43:03.826Z,102038.67
2019-03-20T15:45:35.724Z,102039.48
2019-03-20T15:48:07.810Z,102041.38
2019-03-20T15:50:39.626Z,102041.74
2019-03-20T15:53:11.571Z,102051.98
2019-03-20T15:55:43.742Z,102040.98
2019-03-20T15:58:15.675Z,102049.84
2019-03-20T16:00:47.551Z,102039.00
2019-03-20T16:03:20.397Z,102042.48
2019-03-20T16:05:52.359Z,102041.17
2019-03-20T16:08:24.634Z,102051.83
2019-03-20T16:11:05.998Z,102056.98
2019-03-20T16:13:30.229Z,102055.72
2019-03-20T16:16:02.070Z,102045.23
2019-03-20T16:18:34.310Z,102044.11
2019-03-20T16:21:06.168Z,102040.92
2019-03-20T16:23:38.177Z,102046.91
2019-03-20T16:26:10.166Z,102046.02
2019-03-20T16:28:42.158Z,102057.96
2019-03-20T16:31:14.170Z,102049.25
2019-03-20T16:33:47.273Z,102054.45
2019-03-20T16:36:19.210Z,102056.84
2019-03-20T16:38:52.206Z,102057.61
2019-03-20T16:41:24.102Z,102064.57
2019-03-20T16:43:55.877Z,102068.16
2019-03-20T16:46:27.779Z,102063.27
2019-03-20T16:48:59.905Z,102070.67
2019-03-20T16:51:31.723Z,102067.66
2019-03-20T16:54:04.545Z,102059.27
2019-03-20T16:56:37.445Z,102062.06
2019-03-20T16:59:09.431Z,102066.55
2019-03-20T17:01:41.609Z,102060.59
2019-03-20T17:04:13.988Z,102057.81
2019-03-20T17:06:45.825Z,102057.64
2019-03-20T17:09:17.771Z,102052.58
2019-03-20T17:11:49.587Z,102053.67
2019-03-20T17:14:21.459Z,102055.41
2019-03-20T17:16:53.370Z,102047.97
2019-03-20T17:19:25.876Z,102045.14
2019-03-20T17:21:57.844Z,102040.53
2019-03-20T17:24:29.974Z,102040.95
2019-03-20T17:27:02.178Z,102045.69
2019-03-20T17:29:34.171Z,102053.91
2019-03-20T17:32:06.195Z,102058.61
2019-03-20T17:34:38.230Z,102062.08
2019-03-20T17:37:10.087Z,102063.97
2019-03-20T17:39:41.954Z,102060.63
2019-03-20T17:42:14.218Z,102065.33
2019-03-20T17:44:46.240Z,102067.03
2019-03-20T17:47:18.185Z,102072.84
2019-03-20T17:49:50.441Z,102072.50
2019-03-20T17:52:22.347Z,102080.70
2019-03-20T17:54:55.323Z,102084.59
2019-03-20T17:57:27.218Z,102078.55
2019-03-20T17:59:59.068Z,102087.71
2019-03-20T18:02:30.910Z,102090.75
2019-03-20T18:05:02.995Z,102093.36
2019-03-20T18:07:34.882Z,102087.71
2019-03-20T18:10:07.207Z,102091.67
2019-03-20T18:12:39.160Z,102080.39
2019-03-20T18:15:12.646Z,102076.55
2019-03-20T18:17:44.480Z,102084.23
2019-03-20T18:20:16.616Z,102082.85
2019-03-20T18:22:48.629Z,102089.23
2019-03-20T18:25:20.584Z,102086.20
2019-03-20T18:27:53.814Z,102081.08
2019-03-20T18:30:25.979Z,102080.81
2019-03-20T18:32:57.844Z,102088.28
2019-03-20T18:35:30.679Z,102079.48
2019-03-20T18:38:02.567Z,102084.83
2019-03-20T18:40:34.475Z,102086.91
2019-03-20T18:43:06.476Z,102090.27
2019-03-20T18:45:38.602Z,102095.69
2019-03-20T18:48:10.513Z,102096.28
2019-03-20T18:50:42.551Z,102092.39
2019-03-20T18:53:14.675Z,102091.61
2019-03-20T18:55:46.728Z,102090.94
2019-03-20T18:58:18.595Z,102090.71
2019-03-20T19:00:50.810Z,102079.38
2019-03-20T19:03:22.884Z,102079.05
2019-03-20T19:06:09.067Z,102083.11
2019-03-20T19:08:41.174Z,102081.93
2019-03-20T19:11:13.238Z,102075.55
2019-03-20T19:13:45.435Z,102079.12
2019-03-20T19:16:17.816Z,102080.52
2019-03-20T19:18:51.395Z,102070.06
2019-03-20T19:21:23.720Z,102066.77
2019-03-20T19:23:55.572Z,102058.95
2019-03-20T19:26:27.479Z,102047.61
2019-03-20T19:28:59.404Z,102040.74
2019-03-20T19:31:31.323Z,102048.16
2019-03-20T19:34:04.596Z,102050.95
2019-03-20T19:36:37.418Z,102050.37
2019-03-20T19:39:11.364Z,102056.13
2019-03-20T19:41:43.271Z,102060.45
2019-03-20T19:44:15.400Z,102067.43
2019-03-20T19:46:47.349Z,102072.08
2019-03-20T19:49:19.235Z,102074.21
2019-03-20T19:51:51.525Z,102076.64
2019-03-20T19:54:23.407Z,102085.64
2019-03-20T19:56:55.426Z,102091.69
2019-03-20T19:59:27.498Z,102090.29
2019-03-20T20:01:59.571Z,102089.28
2019-03-20T20:04:31.576Z,102075.61
2019-03-20T20:07:04.002Z,102074.85
2019-03-20T20:09:35.905Z,102077.09
2019-03-20T20:12:07.896Z,102075.03
2019-03-20T20:14:39.765Z,102079.44
2019-03-20T20:17:11.725Z,102078.98
2019-03-20T20:19:43.517Z,102059.03
2019-03-20T20:22:15.533Z,102066.23
2019-03-20T20:24:47.408Z,102069.27
2019-03-20T20:27:19.301Z,102076.55
2019-03-20T20:29:52.313Z,102070.63
2019-03-20T20:32:24.497Z,102067.25
2019-03-20T20:34:56.400Z,102061.00
2019-03-20T20:37:29.179Z,102064.74
2019-03-20T20:40:01.115Z,102062.98
2019-03-20T20:42:42.526Z,102068.08
2019-03-20T20:45:08.165Z,102068.26
2019-03-20T20:47:41.001Z,102068.63
2019-03-20T20:50:13.875Z,102068.89
2019-03-20T20:52:46.168Z,102062.32
2019-03-20T20:55:18.112Z,102061.28
2019-03-20T20:57:50.011Z,102064.09
2019-03-20T21:00:22.270Z,102063.73
2019-03-20T21:02:54.441Z,102062.22
2019-03-20T21:05:26.300Z,102051.08
2019-03-20T21:07:58.479Z,102055.27
2019-03-20T21:10:30.312Z,102055.03
2019-03-20T21:13:02.132Z,102054.52
2019-03-20T21:15:50.042Z,102050.39
2019-03-20T21:19:33.600Z,102049.83
2019-03-20T21:23:02.774Z,102047.67
2019-03-20T21:25:35.533Z,102045.38
2019-03-20T21:28:59.339Z,102040.05
2019-03-20T21:32:02.453Z,102030.86
2019-03-20T21:35:41.867Z,102042.09
2019-03-20T21:38:12.306Z,102042.02
2019-03-20T21:41:56.325Z,102034.42
2019-03-20T21:45:26.059Z,102034.35
2019-03-20T21:47:58.756Z,102029.33
2019-03-20T21:51:11.003Z,102036.02
2019-03-20T21:54:43.915Z,102042.22
2019-03-20T21:57:52.131Z,102045.30
2019-03-20T22:01:21.718Z,102048.02
2019-03-20T22:03:54.357Z,102066.86
2019-03-20T22:07:23.751Z,102076.31
2019-03-20T22:10:53.089Z,102080.63
2019-03-20T22:13:58.067Z,102072.59
2019-03-20T22:17:50.711Z,102064.00
2019-03-20T22:20:53.537Z,102056.50
2019-03-20T22:24:28.316Z,102058.16
2019-03-20T22:28:33.216Z,102058.27
2019-03-20T22:31:05.811Z,102044.27
2019-03-20T22:34:31.456Z,102042.61
2019-03-20T22:37:04.161Z,102040.06
2019-03-20T22:40:56.001Z,102033.30
2019-03-20T22:43:42.896Z,102032.06
2019-03-20T22:47:34.936Z,102024.14
2019-03-20T22:50:22.669Z,102023.37
2019-03-20T22:53:56.408Z,102022.09
2019-03-20T22:57:07.725Z,102032.34
2019-03-20T22:59:40.363Z,102030.37
2019-03-20T23:02:32.144Z,102042.72
2019-03-20T23:05:04.949Z,102038.53
2019-03-20T23:07:37.623Z,102043.69
2019-03-20T23:10:13.885Z,102045.16
2019-03-20T23:12:48.105Z,102040.43
2019-03-20T23:15:21.130Z,102033.27
2019-03-20T23:17:53.862Z,102030.50
2019-03-20T23:20:27.118Z,102023.72
2019-03-20T23:22:59.713Z,102005.55
2019-03-20T23:25:32.301Z,101995.81
2019-03-20T23:28:04.968Z,101988.63
2019-03-20T23:30:37.590Z,101997.97
2019-03-20T23:33:10.234Z,101989.77
2019-03-20T23:35:42.904Z,101990.81
2019-03-20T23:38:15.522Z,101991.43
2019-03-20T23:40:48.190Z,101991.04
2019-03-20T23:43:20.990Z,101996.97
2019-03-20T23:45:53.572Z,101997.23
2019-03-20T23:48:38.441Z,101992.12
2019-03-20T23:51:17.169Z,101986.63
2019-03-20T23:53:53.382Z,101984.52
2019-03-20T23:56:27.700Z,101975.87
2019-03-20T23:59:00.365Z,101975.58
